sensor_id;sensor_type;location;lat;lon;timestamp;temperature;humidity
52575;DHT22;38468;48.114;-1.684;2023-08-08T00:00:26;18.00;72.60
52575;DHT22;38468;48.114;-1.684;2023-08-08T00:02:27;18.00;72.40
52575;DHT22;38468;48.114;-1.684;2023-08-08T00:04:28;18.00;72.20
52575;DHT22;38468;48.114;-1.684;2023-08-08T00:06:28;18.00;71.80
52575;DHT22;38468;48.114;-1.684;2023-08-08T00:08:29;18.00;71.70
52575;DHT22;38468;48.114;-1.684;2023-08-08T00:10:30;17.90;71.80
52575;DHT22;38468;48.114;-1.684;2023-08-08T00:12:30;17.90;71.70
52575;DHT22;38468;48.114;-1.684;2023-08-08T00:14:31;17.90;71.70
52575;DHT22;38468;48.114;-1.684;2023-08-08T00:16:31;17.90;71.70
52575;DHT22;38468;48.114;-1.684;2023-08-08T00:18:32;17.90;71.60
52575;DHT22;38468;48.114;-1.684;2023-08-08T00:20:33;17.90;71.70
52575;DHT22;38468;48.114;-1.684;2023-08-08T00:22:33;17.90;71.70
52575;DHT22;38468;48.114;-1.684;2023-08-08T00:24:34;17.80;71.80
52575;DHT22;38468;48.114;-1.684;2023-08-08T00:26:35;17.80;71.90
52575;DHT22;38468;48.114;-1.684;2023-08-08T00:28:35;17.80;71.70
52575;DHT22;38468;48.114;-1.684;2023-08-08T00:30:36;17.90;71.70
52575;DHT22;38468;48.114;-1.684;2023-08-08T00:32:36;17.80;71.80
52575;DHT22;38468;48.114;-1.684;2023-08-08T00:34:37;17.80;71.90
52575;DHT22;38468;48.114;-1.684;2023-08-08T00:36:38;17.80;71.90
52575;DHT22;38468;48.114;-1.684;2023-08-08T00:38:38;17.70;71.80
52575;DHT22;38468;48.114;-1.684;2023-08-08T00:40:39;17.70;71.80
52575;DHT22;38468;48.114;-1.684;2023-08-08T00:42:39;17.80;71.60
52575;DHT22;38468;48.114;-1.684;2023-08-08T00:44:40;17.80;71.30
52575;DHT22;38468;48.114;-1.684;2023-08-08T00:46:41;17.70;71.40
52575;DHT22;38468;48.114;-1.684;2023-08-08T00:48:42;17.70;71.50
52575;DHT22;38468;48.114;-1.684;2023-08-08T00:50:43;17.70;71.70
52575;DHT22;38468;48.114;-1.684;2023-08-08T00:52:48;17.70;71.50
52575;DHT22;38468;48.114;-1.684;2023-08-08T00:54:48;17.70;71.60
52575;DHT22;38468;48.114;-1.684;2023-08-08T00:56:49;17.60;71.80
52575;DHT22;38468;48.114;-1.684;2023-08-08T00:58:49;17.70;71.60
52575;DHT22;38468;48.114;-1.684;2023-08-08T01:00:51;17.60;71.60
52575;DHT22;38468;48.114;-1.684;2023-08-08T01:02:55;17.60;71.70
52575;DHT22;38468;48.114;-1.684;2023-08-08T01:04:55;17.60;71.90
52575;DHT22;38468;48.114;-1.684;2023-08-08T01:07:10;17.60;71.70
52575;DHT22;38468;48.114;-1.684;2023-08-08T01:09:32;17.60;72.00
52575;DHT22;38468;48.114;-1.684;2023-08-08T01:11:34;17.60;71.70
52575;DHT22;38468;48.114;-1.684;2023-08-08T01:13:37;17.50;72.10
52575;DHT22;38468;48.114;-1.684;2023-08-08T01:15:39;17.60;71.90
52575;DHT22;38468;48.114;-1.684;2023-08-08T01:17:41;17.60;72.00
52575;DHT22;38468;48.114;-1.684;2023-08-08T01:19:43;17.60;72.00
52575;DHT22;38468;48.114;-1.684;2023-08-08T01:21:44;17.60;72.00
52575;DHT22;38468;48.114;-1.684;2023-08-08T01:23:53;17.50;72.10
52575;DHT22;38468;48.114;-1.684;2023-08-08T01:25:54;17.50;72.30
52575;DHT22;38468;48.114;-1.684;2023-08-08T01:27:54;17.50;72.10
52575;DHT22;38468;48.114;-1.684;2023-08-08T01:29:55;17.50;72.10
52575;DHT22;38468;48.114;-1.684;2023-08-08T01:31:56;17.50;72.20
52575;DHT22;38468;48.114;-1.684;2023-08-08T01:33:56;17.50;72.20
52575;DHT22;38468;48.114;-1.684;2023-08-08T01:36:00;17.50;72.20
52575;DHT22;38468;48.114;-1.684;2023-08-08T01:38:24;17.50;72.40
52575;DHT22;38468;48.114;-1.684;2023-08-08T01:40:28;17.50;72.70
52575;DHT22;38468;48.114;-1.684;2023-08-08T01:42:29;17.40;72.50
52575;DHT22;38468;48.114;-1.684;2023-08-08T01:44:30;17.50;72.40
52575;DHT22;38468;48.114;-1.684;2023-08-08T01:46:33;17.50;72.60
52575;DHT22;38468;48.114;-1.684;2023-08-08T01:48:34;17.40;72.30
52575;DHT22;38468;48.114;-1.684;2023-08-08T01:50:35;17.40;72.60
52575;DHT22;38468;48.114;-1.684;2023-08-08T01:52:36;17.40;72.60
52575;DHT22;38468;48.114;-1.684;2023-08-08T01:54:37;17.40;72.50
52575;DHT22;38468;48.114;-1.684;2023-08-08T01:56:37;17.40;72.70
52575;DHT22;38468;48.114;-1.684;2023-08-08T01:58:38;17.40;72.60
52575;DHT22;38468;48.114;-1.684;2023-08-08T02:00:39;17.40;72.80
52575;DHT22;38468;48.114;-1.684;2023-08-08T02:02:41;17.40;72.90
52575;DHT22;38468;48.114;-1.684;2023-08-08T02:04:42;17.30;73.30
52575;DHT22;38468;48.114;-1.684;2023-08-08T02:06:42;17.40;73.40
52575;DHT22;38468;48.114;-1.684;2023-08-08T02:08:43;17.40;73.40
52575;DHT22;38468;48.114;-1.684;2023-08-08T02:10:43;17.40;73.40
52575;DHT22;38468;48.114;-1.684;2023-08-08T02:12:44;17.30;73.30
52575;DHT22;38468;48.114;-1.684;2023-08-08T02:14:45;17.30;73.50
52575;DHT22;38468;48.114;-1.684;2023-08-08T02:16:45;17.30;73.50
52575;DHT22;38468;48.114;-1.684;2023-08-08T02:18:46;17.30;73.60
52575;DHT22;38468;48.114;-1.684;2023-08-08T02:20:46;17.20;73.60
52575;DHT22;38468;48.114;-1.684;2023-08-08T02:22:47;17.20;73.80
52575;DHT22;38468;48.114;-1.684;2023-08-08T02:24:48;17.20;73.70
52575;DHT22;38468;48.114;-1.684;2023-08-08T02:26:48;17.20;73.80
52575;DHT22;38468;48.114;-1.684;2023-08-08T02:28:49;17.20;73.80
52575;DHT22;38468;48.114;-1.684;2023-08-08T02:30:50;17.20;73.80
52575;DHT22;38468;48.114;-1.684;2023-08-08T02:32:50;17.30;73.80
52575;DHT22;38468;48.114;-1.684;2023-08-08T02:34:51;17.30;73.80
52575;DHT22;38468;48.114;-1.684;2023-08-08T02:36:52;17.30;73.90
52575;DHT22;38468;48.114;-1.684;2023-08-08T02:38:52;17.30;73.90
52575;DHT22;38468;48.114;-1.684;2023-08-08T02:40:53;17.30;73.90
52575;DHT22;38468;48.114;-1.684;2023-08-08T02:42:54;17.20;74.00
52575;DHT22;38468;48.114;-1.684;2023-08-08T02:44:55;17.30;73.90
52575;DHT22;38468;48.114;-1.684;2023-08-08T02:46:55;17.20;73.80
52575;DHT22;38468;48.114;-1.684;2023-08-08T02:48:56;17.30;73.90
52575;DHT22;38468;48.114;-1.684;2023-08-08T02:50:56;17.20;74.10
52575;DHT22;38468;48.114;-1.684;2023-08-08T02:52:57;17.20;74.30
52575;DHT22;38468;48.114;-1.684;2023-08-08T02:54:58;17.20;74.00
52575;DHT22;38468;48.114;-1.684;2023-08-08T02:56:58;17.20;74.00
52575;DHT22;38468;48.114;-1.684;2023-08-08T02:58:59;17.20;74.00
52575;DHT22;38468;48.114;-1.684;2023-08-08T03:01:00;17.20;74.00
52575;DHT22;38468;48.114;-1.684;2023-08-08T03:03:00;17.20;73.90
52575;DHT22;38468;48.114;-1.684;2023-08-08T03:05:01;17.20;74.00
52575;DHT22;38468;48.114;-1.684;2023-08-08T03:07:02;17.20;74.10
52575;DHT22;38468;48.114;-1.684;2023-08-08T03:09:04;17.20;74.00
52575;DHT22;38468;48.114;-1.684;2023-08-08T03:11:05;17.20;73.80
52575;DHT22;38468;48.114;-1.684;2023-08-08T03:13:06;17.20;74.00
52575;DHT22;38468;48.114;-1.684;2023-08-08T03:15:07;17.20;74.00
52575;DHT22;38468;48.114;-1.684;2023-08-08T03:17:08;17.20;73.80
52575;DHT22;38468;48.114;-1.684;2023-08-08T03:19:10;17.20;74.00
52575;DHT22;38468;48.114;-1.684;2023-08-08T03:21:11;17.20;74.00
52575;DHT22;38468;48.114;-1.684;2023-08-08T03:23:11;17.20;74.00
52575;DHT22;38468;48.114;-1.684;2023-08-08T03:25:12;17.20;74.10
52575;DHT22;38468;48.114;-1.684;2023-08-08T03:27:12;17.20;74.00
52575;DHT22;38468;48.114;-1.684;2023-08-08T03:29:13;17.20;74.00
52575;DHT22;38468;48.114;-1.684;2023-08-08T03:31:14;17.20;73.90
52575;DHT22;38468;48.114;-1.684;2023-08-08T03:33:14;17.10;74.10
52575;DHT22;38468;48.114;-1.684;2023-08-08T03:35:15;17.10;74.10
52575;DHT22;38468;48.114;-1.684;2023-08-08T03:37:16;17.00;74.50
52575;DHT22;38468;48.114;-1.684;2023-08-08T03:39:16;17.00;74.60
52575;DHT22;38468;48.114;-1.684;2023-08-08T03:41:17;17.00;74.50
52575;DHT22;38468;48.114;-1.684;2023-08-08T03:43:17;17.00;74.50
52575;DHT22;38468;48.114;-1.684;2023-08-08T03:45:18;17.00;74.50
52575;DHT22;38468;48.114;-1.684;2023-08-08T03:47:19;17.00;74.40
52575;DHT22;38468;48.114;-1.684;2023-08-08T03:49:19;17.00;74.70
52575;DHT22;38468;48.114;-1.684;2023-08-08T03:51:20;17.00;74.80
52575;DHT22;38468;48.114;-1.684;2023-08-08T03:53:21;17.00;74.70
52575;DHT22;38468;48.114;-1.684;2023-08-08T03:55:21;17.00;74.90
52575;DHT22;38468;48.114;-1.684;2023-08-08T03:57:22;17.00;74.70
52575;DHT22;38468;48.114;-1.684;2023-08-08T03:59:23;17.00;74.90
52575;DHT22;38468;48.114;-1.684;2023-08-08T04:01:23;16.90;74.70
52575;DHT22;38468;48.114;-1.684;2023-08-08T04:03:24;17.00;75.00
52575;DHT22;38468;48.114;-1.684;2023-08-08T04:05:24;17.00;75.10
52575;DHT22;38468;48.114;-1.684;2023-08-08T04:07:25;16.90;75.00
52575;DHT22;38468;48.114;-1.684;2023-08-08T04:09:26;16.90;75.20
52575;DHT22;38468;48.114;-1.684;2023-08-08T04:11:26;16.90;75.20
52575;DHT22;38468;48.114;-1.684;2023-08-08T04:13:27;16.90;75.30
52575;DHT22;38468;48.114;-1.684;2023-08-08T04:15:28;16.90;75.30
52575;DHT22;38468;48.114;-1.684;2023-08-08T04:17:28;16.80;75.40
52575;DHT22;38468;48.114;-1.684;2023-08-08T04:19:29;16.60;75.70
52575;DHT22;38468;48.114;-1.684;2023-08-08T04:21:30;16.70;75.80
52575;DHT22;38468;48.114;-1.684;2023-08-08T04:23:32;16.70;75.80
52575;DHT22;38468;48.114;-1.684;2023-08-08T04:25:33;16.60;76.00
52575;DHT22;38468;48.114;-1.684;2023-08-08T04:27:33;16.70;75.80
52575;DHT22;38468;48.114;-1.684;2023-08-08T04:29:34;16.60;76.00
52575;DHT22;38468;48.114;-1.684;2023-08-08T04:31:35;16.50;76.10
52575;DHT22;38468;48.114;-1.684;2023-08-08T04:33:35;16.50;76.30
52575;DHT22;38468;48.114;-1.684;2023-08-08T04:35:36;16.50;76.40
52575;DHT22;38468;48.114;-1.684;2023-08-08T04:37:36;16.50;76.50
52575;DHT22;38468;48.114;-1.684;2023-08-08T04:39:37;16.50;76.50
52575;DHT22;38468;48.114;-1.684;2023-08-08T04:41:38;16.40;77.00
52575;DHT22;38468;48.114;-1.684;2023-08-08T04:43:38;16.40;76.90
52575;DHT22;38468;48.114;-1.684;2023-08-08T04:45:39;16.40;76.90
52575;DHT22;38468;48.114;-1.684;2023-08-08T04:47:39;16.40;76.70
52575;DHT22;38468;48.114;-1.684;2023-08-08T04:49:40;16.40;76.80
52575;DHT22;38468;48.114;-1.684;2023-08-08T04:51:41;16.40;76.90
52575;DHT22;38468;48.114;-1.684;2023-08-08T04:53:41;16.30;77.10
52575;DHT22;38468;48.114;-1.684;2023-08-08T04:55:42;16.30;77.20
52575;DHT22;38468;48.114;-1.684;2023-08-08T04:57:43;16.20;77.60
52575;DHT22;38468;48.114;-1.684;2023-08-08T04:59:43;16.20;77.50
52575;DHT22;38468;48.114;-1.684;2023-08-08T05:01:44;16.20;77.50
52575;DHT22;38468;48.114;-1.684;2023-08-08T05:03:44;16.20;77.60
52575;DHT22;38468;48.114;-1.684;2023-08-08T05:05:45;16.20;77.70
52575;DHT22;38468;48.114;-1.684;2023-08-08T05:07:46;16.20;77.60
52575;DHT22;38468;48.114;-1.684;2023-08-08T05:09:46;16.20;77.60
52575;DHT22;38468;48.114;-1.684;2023-08-08T05:11:47;16.20;77.70
52575;DHT22;38468;48.114;-1.684;2023-08-08T05:13:48;16.10;77.50
52575;DHT22;38468;48.114;-1.684;2023-08-08T05:15:48;16.20;77.60
52575;DHT22;38468;48.114;-1.684;2023-08-08T05:17:49;16.20;77.80
52575;DHT22;38468;48.114;-1.684;2023-08-08T05:19:50;16.20;77.70
52575;DHT22;38468;48.114;-1.684;2023-08-08T05:21:50;16.20;77.70
52575;DHT22;38468;48.114;-1.684;2023-08-08T05:23:51;16.20;77.60
52575;DHT22;38468;48.114;-1.684;2023-08-08T05:25:51;16.20;77.50
52575;DHT22;38468;48.114;-1.684;2023-08-08T05:27:52;16.20;77.60
52575;DHT22;38468;48.114;-1.684;2023-08-08T05:29:53;16.20;77.60
52575;DHT22;38468;48.114;-1.684;2023-08-08T05:31:54;16.20;77.60
52575;DHT22;38468;48.114;-1.684;2023-08-08T05:33:54;16.20;77.50
52575;DHT22;38468;48.114;-1.684;2023-08-08T05:35:55;16.20;77.40
52575;DHT22;38468;48.114;-1.684;2023-08-08T05:37:56;16.30;77.30
52575;DHT22;38468;48.114;-1.684;2023-08-08T05:39:57;16.30;77.00
52575;DHT22;38468;48.114;-1.684;2023-08-08T05:41:57;16.30;76.80
52575;DHT22;38468;48.114;-1.684;2023-08-08T05:43:58;16.20;77.30
52575;DHT22;38468;48.114;-1.684;2023-08-08T05:45:58;16.30;77.40
52575;DHT22;38468;48.114;-1.684;2023-08-08T05:47:59;16.20;77.60
52575;DHT22;38468;48.114;-1.684;2023-08-08T05:50:00;16.30;77.40
52575;DHT22;38468;48.114;-1.684;2023-08-08T05:52:01;16.10;77.30
52575;DHT22;38468;48.114;-1.684;2023-08-08T05:54:02;16.20;77.70
52575;DHT22;38468;48.114;-1.684;2023-08-08T05:56:03;16.30;77.50
52575;DHT22;38468;48.114;-1.684;2023-08-08T05:58:04;16.30;77.50
52575;DHT22;38468;48.114;-1.684;2023-08-08T06:00:05;16.40;77.50
52575;DHT22;38468;48.114;-1.684;2023-08-08T06:02:08;16.30;77.30
52575;DHT22;38468;48.114;-1.684;2023-08-08T06:04:09;16.40;77.40
52575;DHT22;38468;48.114;-1.684;2023-08-08T06:06:10;16.40;77.20
52575;DHT22;38468;48.114;-1.684;2023-08-08T06:08:10;16.40;76.80
52575;DHT22;38468;48.114;-1.684;2023-08-08T06:10:12;16.40;76.50
52575;DHT22;38468;48.114;-1.684;2023-08-08T06:12:13;16.40;76.60
52575;DHT22;38468;48.114;-1.684;2023-08-08T06:14:14;16.40;76.80
52575;DHT22;38468;48.114;-1.684;2023-08-08T06:16:14;16.40;76.60
52575;DHT22;38468;48.114;-1.684;2023-08-08T06:18:16;16.30;76.70
52575;DHT22;38468;48.114;-1.684;2023-08-08T06:20:17;16.30;77.10
52575;DHT22;38468;48.114;-1.684;2023-08-08T06:22:18;16.40;76.80
52575;DHT22;38468;48.114;-1.684;2023-08-08T06:24:19;16.40;76.50
52575;DHT22;38468;48.114;-1.684;2023-08-08T06:26:19;16.50;76.40
52575;DHT22;38468;48.114;-1.684;2023-08-08T06:28:21;16.50;76.00
52575;DHT22;38468;48.114;-1.684;2023-08-08T06:30:22;16.60;75.80
52575;DHT22;38468;48.114;-1.684;2023-08-08T06:32:22;16.60;75.80
52575;DHT22;38468;48.114;-1.684;2023-08-08T06:34:23;16.70;75.60
52575;DHT22;38468;48.114;-1.684;2023-08-08T06:36:23;16.70;75.60
52575;DHT22;38468;48.114;-1.684;2023-08-08T06:38:24;16.70;75.60
52575;DHT22;38468;48.114;-1.684;2023-08-08T06:40:25;16.70;75.60
52575;DHT22;38468;48.114;-1.684;2023-08-08T06:42:25;16.70;75.40
52575;DHT22;38468;48.114;-1.684;2023-08-08T06:44:26;16.80;75.50
52575;DHT22;38468;48.114;-1.684;2023-08-08T06:46:27;16.80;75.60
52575;DHT22;38468;48.114;-1.684;2023-08-08T06:48:27;16.90;75.70
52575;DHT22;38468;48.114;-1.684;2023-08-08T06:50:28;16.90;74.90
52575;DHT22;38468;48.114;-1.684;2023-08-08T06:52:28;16.90;75.00
52575;DHT22;38468;48.114;-1.684;2023-08-08T06:54:29;16.90;74.70
52575;DHT22;38468;48.114;-1.684;2023-08-08T06:56:30;16.90;74.30
52575;DHT22;38468;48.114;-1.684;2023-08-08T06:58:30;17.00;74.00
52575;DHT22;38468;48.114;-1.684;2023-08-08T07:00:31;17.00;74.10
52575;DHT22;38468;48.114;-1.684;2023-08-08T07:02:32;16.80;73.90
52575;DHT22;38468;48.114;-1.684;2023-08-08T07:04:32;16.90;74.80
52575;DHT22;38468;48.114;-1.684;2023-08-08T07:06:33;16.90;74.70
52575;DHT22;38468;48.114;-1.684;2023-08-08T07:08:34;16.80;74.80
52575;DHT22;38468;48.114;-1.684;2023-08-08T07:10:35;16.90;74.40
52575;DHT22;38468;48.114;-1.684;2023-08-08T07:12:36;17.00;74.50
52575;DHT22;38468;48.114;-1.684;2023-08-08T07:14:36;17.00;74.60
52575;DHT22;38468;48.114;-1.684;2023-08-08T07:16:37;17.10;74.50
52575;DHT22;38468;48.114;-1.684;2023-08-08T07:18:38;17.20;74.40
52575;DHT22;38468;48.114;-1.684;2023-08-08T07:20:38;17.20;74.50
52575;DHT22;38468;48.114;-1.684;2023-08-08T07:22:39;17.20;74.20
52575;DHT22;38468;48.114;-1.684;2023-08-08T07:24:40;17.40;74.40
52575;DHT22;38468;48.114;-1.684;2023-08-08T07:26:41;17.50;74.10
52575;DHT22;38468;48.114;-1.684;2023-08-08T07:28:41;17.50;73.60
52575;DHT22;38468;48.114;-1.684;2023-08-08T07:30:42;17.50;73.00
52575;DHT22;38468;48.114;-1.684;2023-08-08T07:32:42;17.50;72.90
52575;DHT22;38468;48.114;-1.684;2023-08-08T07:34:43;17.50;73.10
52575;DHT22;38468;48.114;-1.684;2023-08-08T07:36:44;17.60;72.90
52575;DHT22;38468;48.114;-1.684;2023-08-08T07:38:44;17.70;72.90
52575;DHT22;38468;48.114;-1.684;2023-08-08T07:40:45;17.60;72.50
52575;DHT22;38468;48.114;-1.684;2023-08-08T07:42:47;17.60;72.30
52575;DHT22;38468;48.114;-1.684;2023-08-08T07:44:48;17.50;71.90
52575;DHT22;38468;48.114;-1.684;2023-08-08T07:46:49;17.60;72.20
52575;DHT22;38468;48.114;-1.684;2023-08-08T07:48:49;17.70;72.60
52575;DHT22;38468;48.114;-1.684;2023-08-08T07:50:50;17.50;72.00
52575;DHT22;38468;48.114;-1.684;2023-08-08T07:52:50;17.50;72.00
52575;DHT22;38468;48.114;-1.684;2023-08-08T07:54:51;17.60;71.80
52575;DHT22;38468;48.114;-1.684;2023-08-08T07:56:52;17.80;72.00
52575;DHT22;38468;48.114;-1.684;2023-08-08T07:58:52;17.90;71.90
52575;DHT22;38468;48.114;-1.684;2023-08-08T08:00:53;18.00;71.60
52575;DHT22;38468;48.114;-1.684;2023-08-08T08:02:54;18.00;70.10
52575;DHT22;38468;48.114;-1.684;2023-08-08T08:04:54;17.90;69.70
52575;DHT22;38468;48.114;-1.684;2023-08-08T08:06:56;17.90;70.30
52575;DHT22;38468;48.114;-1.684;2023-08-08T08:08:57;17.80;70.10
52575;DHT22;38468;48.114;-1.684;2023-08-08T08:10:58;18.00;69.70
52575;DHT22;38468;48.114;-1.684;2023-08-08T08:12:58;18.00;70.00
52575;DHT22;38468;48.114;-1.684;2023-08-08T08:14:59;18.00;70.00
52575;DHT22;38468;48.114;-1.684;2023-08-08T08:17:00;18.10;69.20
52575;DHT22;38468;48.114;-1.684;2023-08-08T08:19:00;18.20;69.80
52575;DHT22;38468;48.114;-1.684;2023-08-08T08:21:01;18.30;70.10
52575;DHT22;38468;48.114;-1.684;2023-08-08T08:23:02;18.50;69.50
52575;DHT22;38468;48.114;-1.684;2023-08-08T08:25:03;18.50;68.50
52575;DHT22;38468;48.114;-1.684;2023-08-08T08:27:04;18.50;68.20
52575;DHT22;38468;48.114;-1.684;2023-08-08T08:29:05;18.60;68.10
52575;DHT22;38468;48.114;-1.684;2023-08-08T08:31:06;18.70;68.70
52575;DHT22;38468;48.114;-1.684;2023-08-08T08:33:07;18.80;68.30
52575;DHT22;38468;48.114;-1.684;2023-08-08T08:35:09;18.40;67.40
52575;DHT22;38468;48.114;-1.684;2023-08-08T08:37:10;18.50;68.20
52575;DHT22;38468;48.114;-1.684;2023-08-08T08:39:10;18.70;67.90
52575;DHT22;38468;48.114;-1.684;2023-08-08T08:41:11;18.80;68.60
52575;DHT22;38468;48.114;-1.684;2023-08-08T08:43:15;18.50;67.00
52575;DHT22;38468;48.114;-1.684;2023-08-08T08:45:18;18.70;67.40
52575;DHT22;38468;48.114;-1.684;2023-08-08T08:47:20;18.90;67.80
52575;DHT22;38468;48.114;-1.684;2023-08-08T08:49:22;19.10;67.70
52575;DHT22;38468;48.114;-1.684;2023-08-08T08:51:23;19.10;67.10
52575;DHT22;38468;48.114;-1.684;2023-08-08T08:53:24;19.10;66.20
52575;DHT22;38468;48.114;-1.684;2023-08-08T08:55:24;19.20;66.50
52575;DHT22;38468;48.114;-1.684;2023-08-08T08:57:25;18.90;65.50
52575;DHT22;38468;48.114;-1.684;2023-08-08T08:59:26;19.00;66.00
52575;DHT22;38468;48.114;-1.684;2023-08-08T09:01:27;19.20;65.70
52575;DHT22;38468;48.114;-1.684;2023-08-08T09:03:28;19.30;65.20
52575;DHT22;38468;48.114;-1.684;2023-08-08T09:05:30;19.00;64.90
52575;DHT22;38468;48.114;-1.684;2023-08-08T09:07:32;19.10;64.70
52575;DHT22;38468;48.114;-1.684;2023-08-08T09:09:33;19.20;65.10
52575;DHT22;38468;48.114;-1.684;2023-08-08T09:11:34;19.40;65.80
52575;DHT22;38468;48.114;-1.684;2023-08-08T09:13:38;19.50;65.20
52575;DHT22;38468;48.114;-1.684;2023-08-08T09:15:39;19.60;64.60
52575;DHT22;38468;48.114;-1.684;2023-08-08T09:17:44;19.50;64.30
52575;DHT22;38468;48.114;-1.684;2023-08-08T09:19:45;19.60;63.10
52575;DHT22;38468;48.114;-1.684;2023-08-08T09:21:47;19.40;63.60
52575;DHT22;38468;48.114;-1.684;2023-08-08T09:23:48;19.50;63.10
52575;DHT22;38468;48.114;-1.684;2023-08-08T09:25:49;19.40;63.90
52575;DHT22;38468;48.114;-1.684;2023-08-08T09:27:53;19.50;62.30
52575;DHT22;38468;48.114;-1.684;2023-08-08T09:29:54;19.40;63.10
52575;DHT22;38468;48.114;-1.684;2023-08-08T09:31:54;19.50;63.10
52575;DHT22;38468;48.114;-1.684;2023-08-08T09:34:00;19.60;63.70
52575;DHT22;38468;48.114;-1.684;2023-08-08T09:36:01;19.80;62.80
52575;DHT22;38468;48.114;-1.684;2023-08-08T09:38:01;19.70;61.60
52575;DHT22;38468;48.114;-1.684;2023-08-08T09:40:04;19.90;62.60
52575;DHT22;38468;48.114;-1.684;2023-08-08T09:42:08;19.90;61.10
52575;DHT22;38468;48.114;-1.684;2023-08-08T09:44:12;19.90;61.60
52575;DHT22;38468;48.114;-1.684;2023-08-08T09:46:14;20.00;61.50
52575;DHT22;38468;48.114;-1.684;2023-08-08T09:48:16;20.00;60.90
52575;DHT22;38468;48.114;-1.684;2023-08-08T09:50:18;20.10;60.40
52575;DHT22;38468;48.114;-1.684;2023-08-08T09:52:19;19.80;60.30
52575;DHT22;38468;48.114;-1.684;2023-08-08T09:54:21;19.80;60.30
52575;DHT22;38468;48.114;-1.684;2023-08-08T09:56:25;19.80;60.00
52575;DHT22;38468;48.114;-1.684;2023-08-08T09:58:26;20.00;59.70
52575;DHT22;38468;48.114;-1.684;2023-08-08T10:00:27;20.00;59.70
52575;DHT22;38468;48.114;-1.684;2023-08-08T10:02:28;20.00;59.00
52575;DHT22;38468;48.114;-1.684;2023-08-08T10:04:29;19.90;58.80
52575;DHT22;38468;48.114;-1.684;2023-08-08T10:06:30;19.60;58.90
52575;DHT22;38468;48.114;-1.684;2023-08-08T10:08:32;19.70;59.90
52575;DHT22;38468;48.114;-1.684;2023-08-08T10:10:33;19.90;59.50
52575;DHT22;38468;48.114;-1.684;2023-08-08T10:12:34;20.10;59.30
52575;DHT22;38468;48.114;-1.684;2023-08-08T10:14:37;20.20;58.70
52575;DHT22;38468;48.114;-1.684;2023-08-08T10:16:43;20.40;59.50
52575;DHT22;38468;48.114;-1.684;2023-08-08T10:18:46;20.50;58.80
52575;DHT22;38468;48.114;-1.684;2023-08-08T10:20:54;20.70;58.70
52575;DHT22;38468;48.114;-1.684;2023-08-08T10:22:58;20.90;57.60
52575;DHT22;38468;48.114;-1.684;2023-08-08T10:24:58;21.00;57.40
52575;DHT22;38468;48.114;-1.684;2023-08-08T10:27:04;21.10;57.10
52575;DHT22;38468;48.114;-1.684;2023-08-08T10:29:05;21.10;56.40
52575;DHT22;38468;48.114;-1.684;2023-08-08T10:31:15;20.50;56.90
52575;DHT22;38468;48.114;-1.684;2023-08-08T10:33:24;20.70;57.10
52575;DHT22;38468;48.114;-1.684;2023-08-08T10:35:36;20.90;56.00
52575;DHT22;38468;48.114;-1.684;2023-08-08T10:37:37;21.00;54.70
52575;DHT22;38468;48.114;-1.684;2023-08-08T10:39:57;21.00;56.10
52575;DHT22;38468;48.114;-1.684;2023-08-08T10:42:03;21.10;55.60
52575;DHT22;38468;48.114;-1.684;2023-08-08T10:44:09;21.20;55.50
52575;DHT22;38468;48.114;-1.684;2023-08-08T10:46:11;21.00;54.40
52575;DHT22;38468;48.114;-1.684;2023-08-08T10:48:11;21.00;55.30
52575;DHT22;38468;48.114;-1.684;2023-08-08T10:50:14;21.00;54.30
52575;DHT22;38468;48.114;-1.684;2023-08-08T10:52:15;21.20;55.20
52575;DHT22;38468;48.114;-1.684;2023-08-08T10:54:21;21.50;54.60
52575;DHT22;38468;48.114;-1.684;2023-08-08T10:56:23;21.50;54.90
52575;DHT22;38468;48.114;-1.684;2023-08-08T10:58:35;21.50;52.10
52575;DHT22;38468;48.114;-1.684;2023-08-08T11:00:38;21.50;53.00
52575;DHT22;38468;48.114;-1.684;2023-08-08T11:02:44;21.70;52.90
52575;DHT22;38468;48.114;-1.684;2023-08-08T11:04:44;21.60;52.50
52575;DHT22;38468;48.114;-1.684;2023-08-08T11:06:46;21.40;53.20
52575;DHT22;38468;48.114;-1.684;2023-08-08T11:08:47;21.30;53.70
52575;DHT22;38468;48.114;-1.684;2023-08-08T11:10:52;21.40;54.10
52575;DHT22;38468;48.114;-1.684;2023-08-08T11:12:58;21.50;53.10
52575;DHT22;38468;48.114;-1.684;2023-08-08T11:14:59;21.80;52.80
52575;DHT22;38468;48.114;-1.684;2023-08-08T11:17:00;21.90;52.00
52575;DHT22;38468;48.114;-1.684;2023-08-08T11:19:00;22.00;52.10
52575;DHT22;38468;48.114;-1.684;2023-08-08T11:21:09;22.20;52.90
52575;DHT22;38468;48.114;-1.684;2023-08-08T11:23:11;22.40;51.70
52575;DHT22;38468;48.114;-1.684;2023-08-08T11:25:14;22.30;51.10
52575;DHT22;38468;48.114;-1.684;2023-08-08T11:27:15;22.50;50.10
52575;DHT22;38468;48.114;-1.684;2023-08-08T11:29:16;22.10;50.40
52575;DHT22;38468;48.114;-1.684;2023-08-08T11:31:19;22.00;51.70
52575;DHT22;38468;48.114;-1.684;2023-08-08T11:33:20;22.20;51.10
52575;DHT22;38468;48.114;-1.684;2023-08-08T11:35:22;22.40;51.30
52575;DHT22;38468;48.114;-1.684;2023-08-08T11:37:23;22.30;50.60
52575;DHT22;38468;48.114;-1.684;2023-08-08T11:39:24;22.10;51.20
52575;DHT22;38468;48.114;-1.684;2023-08-08T11:41:25;22.20;51.40
52575;DHT22;38468;48.114;-1.684;2023-08-08T11:43:26;22.40;51.90
52575;DHT22;38468;48.114;-1.684;2023-08-08T11:45:27;22.60;51.40
52575;DHT22;38468;48.114;-1.684;2023-08-08T11:47:28;22.50;51.40
52575;DHT22;38468;48.114;-1.684;2023-08-08T11:49:41;22.50;53.40
52575;DHT22;38468;48.114;-1.684;2023-08-08T11:51:46;22.90;53.50
52575;DHT22;38468;48.114;-1.684;2023-08-08T11:53:51;23.10;52.40
52575;DHT22;38468;48.114;-1.684;2023-08-08T11:55:52;23.30;51.30
52575;DHT22;38468;48.114;-1.684;2023-08-08T11:57:54;22.70;51.50
52575;DHT22;38468;48.114;-1.684;2023-08-08T11:59:57;22.70;51.70
52575;DHT22;38468;48.114;-1.684;2023-08-08T12:01:58;23.00;51.30
52575;DHT22;38468;48.114;-1.684;2023-08-08T12:04:05;22.60;52.70
52575;DHT22;38468;48.114;-1.684;2023-08-08T12:06:14;23.00;52.80
52575;DHT22;38468;48.114;-1.684;2023-08-08T12:08:21;22.70;51.80
52575;DHT22;38468;48.114;-1.684;2023-08-08T12:10:24;22.80;53.70
52575;DHT22;38468;48.114;-1.684;2023-08-08T12:12:28;22.90;51.50
52575;DHT22;38468;48.114;-1.684;2023-08-08T12:14:29;22.50;52.80
52575;DHT22;38468;48.114;-1.684;2023-08-08T12:16:30;22.50;52.80
52575;DHT22;38468;48.114;-1.684;2023-08-08T12:18:31;22.80;53.50
52575;DHT22;38468;48.114;-1.684;2023-08-08T12:20:32;22.90;52.50
52575;DHT22;38468;48.114;-1.684;2023-08-08T12:22:33;22.80;53.20
52575;DHT22;38468;48.114;-1.684;2023-08-08T12:24:34;23.00;52.10
52575;DHT22;38468;48.114;-1.684;2023-08-08T12:26:35;23.10;53.60
52575;DHT22;38468;48.114;-1.684;2023-08-08T12:28:35;22.90;52.30
52575;DHT22;38468;48.114;-1.684;2023-08-08T12:30:36;23.00;53.40
52575;DHT22;38468;48.114;-1.684;2023-08-08T12:32:37;23.40;52.50
52575;DHT22;38468;48.114;-1.684;2023-08-08T12:34:38;23.60;52.30